sim
Sign-in with your pilot id or email,
or register
Callsign
Passwort

Schedule Details

Flight Number: DLH2047
Departure: Berlin Tegel Airport (EDDT) at 18:00
Arrival: Munich Airport (EDDM) at 19:10
Route: Lufthansa Passenger Schedule. Enter filed route here before submitting Pirep.

Weather Information
Getting current METAR information for EDDT 210720Z 09003KT 030V120 CAVOK 15/07 Q1019 NOSIG
Getting current METAR information for EDDM 210720Z VRB01KT CAVOK 13/12 Q1017 BECMG 09005KT

Schedule Frequency

Route Map